createdAt,value
2018-07-19T00:00:06.076Z,18.30
2018-07-19T00:04:12.103Z,18.20
2018-07-19T00:06:15.239Z,18.10
2018-07-19T00:08:18.376Z,18.10
2018-07-19T00:10:21.502Z,18.00
2018-07-19T00:12:24.644Z,18.00
2018-07-19T00:14:28.475Z,18.00
2018-07-19T00:16:31.615Z,17.90
2018-07-19T00:18:34.752Z,17.90
2018-07-19T00:20:37.900Z,17.90
2018-07-19T00:22:41.996Z,17.80
2018-07-19T00:24:45.152Z,17.80
2018-07-19T00:26:48.296Z,17.70
2018-07-19T00:28:51.415Z,17.70
2018-07-19T00:30:54.630Z,17.70
2018-07-19T00:32:57.764Z,17.60
2018-07-19T00:35:00.908Z,17.60
2018-07-19T00:37:04.037Z,17.60
2018-07-19T00:39:07.880Z,17.50
2018-07-19T00:41:11.023Z,17.50
2018-07-19T00:43:14.156Z,17.40
2018-07-19T00:45:17.315Z,17.40
2018-07-19T00:47:20.435Z,17.40
2018-07-19T00:49:23.600Z,17.40
2018-07-19T00:51:26.731Z,17.30
2018-07-19T00:53:29.859Z,17.20
2018-07-19T00:55:33.179Z,17.20
2018-07-19T00:57:36.307Z,17.20
2018-07-19T00:59:39.447Z,17.20
2018-07-19T01:01:42.543Z,17.10
2018-07-19T01:03:45.636Z,17.00
2018-07-19T01:05:48.764Z,17.00
2018-07-19T01:07:51.879Z,17.00
2018-07-19T01:09:54.962Z,16.90
2018-07-19T01:11:58.064Z,16.90
2018-07-19T01:14:01.180Z,16.90
2018-07-19T01:16:04.288Z,16.90
2018-07-19T01:18:07.412Z,16.80
2018-07-19T01:20:10.508Z,16.80
2018-07-19T01:22:13.616Z,16.80
2018-07-19T01:24:16.738Z,16.80
2018-07-19T01:26:19.839Z,16.70
2018-07-19T01:28:22.928Z,16.70
2018-07-19T01:30:26.015Z,16.70
2018-07-19T02:11:27.818Z,16.30
2018-07-19T02:13:30.963Z,16.20
2018-07-19T02:15:34.096Z,16.10
2018-07-19T02:17:37.239Z,16.00
2018-07-19T02:19:40.380Z,16.00
2018-07-19T02:21:43.971Z,16.00
2018-07-19T02:23:47.107Z,15.90
2018-07-19T02:25:50.239Z,15.90
2018-07-19T02:27:53.379Z,15.90
2018-07-19T02:29:56.511Z,15.90
2018-07-19T02:31:59.639Z,15.80
2018-07-19T02:34:03.275Z,15.80
2018-07-19T02:36:06.417Z,15.80
2018-07-19T02:38:09.548Z,15.70
2018-07-19T02:40:12.715Z,15.70
2018-07-19T02:42:15.835Z,15.70
2018-07-19T02:44:19.639Z,15.80
2018-07-19T02:46:22.772Z,15.70
2018-07-19T02:48:25.940Z,15.60
2018-07-19T02:50:29.075Z,15.50
2018-07-19T02:52:32.199Z,15.50
2018-07-19T02:54:35.328Z,15.50
2018-07-19T02:56:38.476Z,15.40
2018-07-19T02:58:41.621Z,15.40
2018-07-19T03:00:44.767Z,15.40
2018-07-19T03:02:47.907Z,15.40
2018-07-19T03:04:51.087Z,15.40
2018-07-19T03:06:54.222Z,15.30
2018-07-19T03:08:57.351Z,15.30
2018-07-19T03:11:00.480Z,15.30
2018-07-19T03:13:03.617Z,15.30
2018-07-19T03:15:06.804Z,15.20
2018-07-19T03:17:09.940Z,15.20
2018-07-19T03:19:13.083Z,15.20
2018-07-19T03:21:16.228Z,15.20
2018-07-19T03:23:19.556Z,15.20
2018-07-19T03:25:22.704Z,15.10
2018-07-19T03:27:25.891Z,15.10
2018-07-19T03:29:29.024Z,15.10
2018-07-19T03:31:32.148Z,15.10
2018-07-19T03:33:35.263Z,15.10
2018-07-19T03:35:38.424Z,15.00
2018-07-19T03:37:41.568Z,15.00
2018-07-19T03:39:44.705Z,15.00
2018-07-19T03:41:47.840Z,15.00
2018-07-19T03:43:50.985Z,15.00
2018-07-19T03:45:54.127Z,15.00
2018-07-19T03:47:57.831Z,15.00
2018-07-19T03:50:00.967Z,15.00
2018-07-19T03:52:04.100Z,15.00
2018-07-19T03:56:10.149Z,15.10
2018-07-19T03:58:13.288Z,15.10
2018-07-19T04:00:16.427Z,15.10
2018-07-19T04:02:19.571Z,15.10
2018-07-19T04:04:22.703Z,15.10
2018-07-19T04:06:25.852Z,15.20
2018-07-19T04:08:28.979Z,15.20
2018-07-19T04:10:32.124Z,15.20
2018-07-19T04:12:35.440Z,15.30
2018-07-19T04:14:39.406Z,15.30
2018-07-19T04:16:42.548Z,15.40
2018-07-19T04:18:45.811Z,15.40
2018-07-19T04:20:48.933Z,15.40
2018-07-19T04:22:53.220Z,15.50
2018-07-19T04:24:56.340Z,15.50
2018-07-19T04:26:59.692Z,15.60
2018-07-19T04:29:02.840Z,15.60
2018-07-19T04:31:05.971Z,15.70
2018-07-19T04:33:09.128Z,15.70
2018-07-19T04:35:12.256Z,15.80
2018-07-19T04:37:15.392Z,15.80
2018-07-19T04:39:18.543Z,15.90
2018-07-19T04:41:21.656Z,15.90
2018-07-19T04:43:24.799Z,16.00
2018-07-19T04:45:27.928Z,16.00
2018-07-19T04:47:31.079Z,16.10
2018-07-19T04:49:34.209Z,16.20
2018-07-19T04:51:37.532Z,16.20
2018-07-19T04:53:40.676Z,16.30
2018-07-19T04:55:43.811Z,16.40
2018-07-19T04:57:46.956Z,16.40
2018-07-19T04:59:50.087Z,16.50
2018-07-19T05:01:53.292Z,16.60
2018-07-19T05:03:56.397Z,16.70
2018-07-19T05:05:59.524Z,17.10
2018-07-19T05:08:02.687Z,17.70
2018-07-19T05:10:05.815Z,18.30
2018-07-19T05:12:08.956Z,18.90
2018-07-19T05:14:12.155Z,19.50
2018-07-19T05:16:15.227Z,20.20
2018-07-19T05:18:18.371Z,20.70
2018-07-19T05:22:24.395Z,21.70
2018-07-19T05:24:27.572Z,22.20
2018-07-19T05:26:30.696Z,22.60
2018-07-19T05:28:33.852Z,22.90
2018-07-19T05:30:37.064Z,23.20
2018-07-19T05:32:40.183Z,23.40
2018-07-19T05:36:46.236Z,23.90
2018-07-19T05:38:49.368Z,24.30
2018-07-19T05:40:52.599Z,24.50
2018-07-19T05:42:55.722Z,24.80
2018-07-19T05:44:58.839Z,25.00
2018-07-19T05:47:01.996Z,25.10
2018-07-19T05:49:05.701Z,25.10
2018-07-19T05:51:08.848Z,25.70
2018-07-19T05:53:11.977Z,26.30
2018-07-19T05:55:15.117Z,26.70
2018-07-19T05:59:21.269Z,27.30
2018-07-19T06:01:24.872Z,27.50
2018-07-19T06:03:28.867Z,27.70
2018-07-19T06:05:31.975Z,28.00
2018-07-19T06:07:35.066Z,27.90
2018-07-19T06:09:38.182Z,27.90
2018-07-19T06:11:41.231Z,27.60
2018-07-19T06:13:44.332Z,27.50
2018-07-19T06:15:47.451Z,27.30
2018-07-19T06:17:50.536Z,27.00
2018-07-19T06:19:53.616Z,26.70
2018-07-19T06:21:56.696Z,26.20
2018-07-19T06:23:59.828Z,26.10
2018-07-19T06:26:02.941Z,26.10
2018-07-19T06:28:06.039Z,26.00
2018-07-19T06:30:09.116Z,26.00
2018-07-19T06:32:12.196Z,25.90
2018-07-19T06:34:15.288Z,25.80
2018-07-19T06:36:18.399Z,25.70
2018-07-19T06:38:21.492Z,25.70
2018-07-19T06:40:24.589Z,26.00
2018-07-19T06:44:31.119Z,26.90
2018-07-19T06:46:34.212Z,27.30
2018-07-19T06:48:37.313Z,27.70
2018-07-19T06:50:40.396Z,28.00
2018-07-19T06:52:43.503Z,28.30
2018-07-19T06:56:49.487Z,28.10
2018-07-19T07:00:55.484Z,28.10
2018-07-19T07:05:01.505Z,28.20
2018-07-19T07:07:04.760Z,28.00
2018-07-19T07:09:09.216Z,27.80
2018-07-19T07:11:12.315Z,27.60
2018-07-19T07:13:15.417Z,27.30
2018-07-19T07:15:18.536Z,27.20
2018-07-19T07:17:21.748Z,27.10
2018-07-19T07:19:24.844Z,26.90
2018-07-19T07:21:28.830Z,26.90
2018-07-19T07:23:31.915Z,26.90
2018-07-19T07:25:47.309Z,27.00
2018-07-19T07:27:50.395Z,27.00
2018-07-19T07:29:53.564Z,27.00
2018-07-19T07:31:56.651Z,27.00
2018-07-19T07:33:59.880Z,27.10
2018-07-19T07:36:02.929Z,27.10
2018-07-19T07:38:06.008Z,27.10
2018-07-19T07:40:09.088Z,27.10
2018-07-19T07:42:12.175Z,27.10
2018-07-19T07:44:15.334Z,27.30
2018-07-19T07:46:18.364Z,27.50
2018-07-19T07:48:21.448Z,27.60
2018-07-19T07:50:24.548Z,27.60
2018-07-19T07:54:30.570Z,27.60
2018-07-19T07:56:33.667Z,27.60
2018-07-19T07:58:36.755Z,27.60
2018-07-19T08:00:39.892Z,27.80
2018-07-19T08:02:42.987Z,28.10
2018-07-19T08:04:46.098Z,28.10
2018-07-19T08:06:49.189Z,28.10
2018-07-19T08:08:52.317Z,28.20
2018-07-19T08:10:55.400Z,28.20
2018-07-19T08:15:01.356Z,28.30
2018-07-19T08:17:04.469Z,28.40
2018-07-19T08:23:13.446Z,29.00
2018-07-19T08:27:19.947Z,29.30
2018-07-19T08:31:26.038Z,29.40
2018-07-19T08:33:29.143Z,29.60
2018-07-19T08:37:35.119Z,30.10
2018-07-19T08:39:38.350Z,30.20
2018-07-19T08:41:42.195Z,30.30
2018-07-19T08:45:49.272Z,30.40
2018-07-19T08:47:52.375Z,30.40
2018-07-19T08:49:55.500Z,30.50
2018-07-19T08:51:58.600Z,30.50
2018-07-19T08:54:01.703Z,30.60
2018-07-19T08:56:04.782Z,30.70
2018-07-19T08:58:07.891Z,30.60
2018-07-19T09:00:11.011Z,30.60
2018-07-19T09:02:14.137Z,30.70
2018-07-19T09:04:17.204Z,30.80
2018-07-19T09:06:20.284Z,30.90
2018-07-19T09:08:23.384Z,31.00
2018-07-19T09:10:26.510Z,31.10
2018-07-19T09:12:29.593Z,31.10
2018-07-19T09:16:35.615Z,31.10
2018-07-19T09:18:38.717Z,31.20
2018-07-19T09:22:44.841Z,31.10
2018-07-19T09:24:47.914Z,31.10
2018-07-19T09:26:51.504Z,31.10
2018-07-19T09:28:54.599Z,31.00
2018-07-19T09:30:57.676Z,30.80
2018-07-19T09:33:00.764Z,30.60
2018-07-19T09:35:03.899Z,30.30
2018-07-19T09:37:06.991Z,30.10
2018-07-19T09:39:11.913Z,30.00
2018-07-19T09:41:15.011Z,30.00
2018-07-19T09:43:18.169Z,29.90
2018-07-19T09:45:21.314Z,29.80
2018-07-19T09:47:24.397Z,29.70
2018-07-19T09:49:27.495Z,29.60
2018-07-19T09:51:30.595Z,29.40
2018-07-19T09:55:36.691Z,29.20
2018-07-19T09:57:39.768Z,29.00
2018-07-19T09:59:42.849Z,28.80
2018-07-19T10:01:45.953Z,28.70
2018-07-19T10:03:50.651Z,28.80
2018-07-19T10:07:57.291Z,28.90
2018-07-19T10:10:00.453Z,28.90
2018-07-19T10:32:33.228Z,29.00
2018-07-19T10:44:50.827Z,28.90
2018-07-19T10:46:53.932Z,28.80
2018-07-19T10:48:57.008Z,28.80
2018-07-19T10:51:00.104Z,28.80
2018-07-19T10:55:06.069Z,29.00
2018-07-19T10:57:09.539Z,29.10
2018-07-19T10:59:12.627Z,29.20
2018-07-19T11:01:15.768Z,29.30
2018-07-19T11:03:18.911Z,29.40
2018-07-19T11:05:22.054Z,29.40
2018-07-19T11:07:25.220Z,29.30
2018-07-19T11:09:28.531Z,29.40
2018-07-19T11:11:31.612Z,29.30
2018-07-19T11:13:34.763Z,29.50
2018-07-19T11:15:37.907Z,29.80
2018-07-19T11:17:41.076Z,30.10
2018-07-19T11:19:44.216Z,30.30
2018-07-19T11:21:47.358Z,30.40
2018-07-19T11:23:50.500Z,30.40
2018-07-19T11:25:53.638Z,30.40
2018-07-19T11:27:56.816Z,30.20
2018-07-19T11:29:59.943Z,30.20
2018-07-19T11:32:03.066Z,30.20
2018-07-19T11:34:06.235Z,30.50
2018-07-19T11:36:09.403Z,30.60
2018-07-19T11:38:12.548Z,30.90
2018-07-19T11:42:18.700Z,31.60
2018-07-19T11:44:21.975Z,31.70
2018-07-19T11:46:25.125Z,31.20
2018-07-19T11:48:28.287Z,31.10
2018-07-19T11:50:31.423Z,31.10
2018-07-19T11:52:34.552Z,31.00
2018-07-19T11:54:37.689Z,30.90
2018-07-19T11:56:40.827Z,31.10
2018-07-19T11:58:43.960Z,31.20
2018-07-19T12:00:47.163Z,31.20
2018-07-19T12:02:50.319Z,31.20
2018-07-19T12:04:53.455Z,31.00
2018-07-19T12:06:56.583Z,30.90
2018-07-19T12:08:59.724Z,30.80
2018-07-19T12:11:02.940Z,30.50
2018-07-19T12:13:06.455Z,30.40
2018-07-19T12:15:09.603Z,30.20
2018-07-19T12:19:15.847Z,30.30
2018-07-19T12:21:19.020Z,30.20
2018-07-19T12:23:22.755Z,30.10
2018-07-19T12:25:25.895Z,30.20
2018-07-19T12:27:29.031Z,30.40
2018-07-19T12:29:32.207Z,30.40
2018-07-19T12:31:35.359Z,30.60
2018-07-19T12:33:38.497Z,30.60
2018-07-19T12:35:41.636Z,30.60
2018-07-19T12:37:44.768Z,30.60
2018-07-19T12:41:50.900Z,30.80
2018-07-19T12:43:54.080Z,30.80
2018-07-19T12:45:57.252Z,30.70
2018-07-19T12:48:00.404Z,30.70
2018-07-19T12:50:03.969Z,30.60
2018-07-19T12:52:07.155Z,30.50
2018-07-19T12:54:10.261Z,30.50
2018-07-19T12:56:13.424Z,30.50
2018-07-19T12:58:16.559Z,30.60
2018-07-19T13:00:19.683Z,30.50
2018-07-19T13:02:22.762Z,30.40
2018-07-19T13:04:25.844Z,30.30
2018-07-19T13:06:28.964Z,30.40
2018-07-19T13:08:32.039Z,30.40
2018-07-19T13:10:35.199Z,30.30
2018-07-19T13:12:38.337Z,30.10
2018-07-19T13:14:41.413Z,30.00
2018-07-19T13:18:47.392Z,30.10
2018-07-19T13:20:50.484Z,30.00
2018-07-19T13:22:53.579Z,29.80
2018-07-19T13:24:56.672Z,29.70
2018-07-19T13:31:05.792Z,30.20
2018-07-19T13:33:08.908Z,30.20
2018-07-19T13:37:14.944Z,30.70
2018-07-19T13:39:18.152Z,30.80
2018-07-19T13:41:21.266Z,30.80
2018-07-19T13:43:24.392Z,30.90
2018-07-19T13:45:27.541Z,31.00
2018-07-19T13:49:33.605Z,31.20
2018-07-19T13:51:36.767Z,31.30
2018-07-19T13:53:54.343Z,31.50
2018-07-19T13:55:57.548Z,31.50
2018-07-19T13:58:00.693Z,31.60
2018-07-19T14:08:15.691Z,31.60
2018-07-19T14:12:21.663Z,31.50
2018-07-19T14:14:24.747Z,31.40
2018-07-19T14:20:33.639Z,31.70
2018-07-19T14:22:36.748Z,31.70
2018-07-19T14:26:42.880Z,31.50
2018-07-19T14:28:45.976Z,31.50
2018-07-19T14:30:49.080Z,31.60
2018-07-19T14:32:52.179Z,31.40
2018-07-19T14:34:55.267Z,31.40
2018-07-19T14:36:58.371Z,31.50
2018-07-19T14:41:04.687Z,31.30
2018-07-19T14:43:07.788Z,31.40
2018-07-19T14:45:10.875Z,31.50
2018-07-19T14:47:13.982Z,31.40
2018-07-19T14:53:22.892Z,31.40
2018-07-19T14:55:25.964Z,31.50
2018-07-19T14:57:29.047Z,31.60
2018-07-19T14:59:32.140Z,31.70
2018-07-19T15:01:36.092Z,31.80
2018-07-19T15:05:42.170Z,32.00
2018-07-19T15:07:45.304Z,32.10
2018-07-19T15:09:48.444Z,32.20
2018-07-19T15:11:51.584Z,32.30
2018-07-19T15:13:54.739Z,32.30
2018-07-19T15:15:57.876Z,32.10
2018-07-19T15:18:01.036Z,32.10
2018-07-19T15:20:04.512Z,32.00
2018-07-19T15:22:07.654Z,32.00
2018-07-19T15:26:13.738Z,31.80
2018-07-19T15:28:16.871Z,31.80
2018-07-19T15:30:20.072Z,31.80
2018-07-19T15:32:23.213Z,31.90
2018-07-19T15:34:26.432Z,31.70
2018-07-19T15:38:32.417Z,31.30
2018-07-19T15:40:36.143Z,31.30
2018-07-19T15:42:39.293Z,31.40
2018-07-19T15:44:42.435Z,31.50
2018-07-19T15:46:45.551Z,31.50
2018-07-19T15:48:48.712Z,31.50
2018-07-19T15:50:51.836Z,31.30
2018-07-19T15:57:00.871Z,31.20
2018-07-19T15:59:04.027Z,31.20
2018-07-19T16:01:07.176Z,31.30
2018-07-19T16:03:10.316Z,31.30
2018-07-19T16:05:13.475Z,31.10
2018-07-19T16:07:16.615Z,31.00
2018-07-19T16:09:19.762Z,31.10
2018-07-19T16:11:22.928Z,31.10
2018-07-19T16:13:26.064Z,31.10
2018-07-19T16:15:29.194Z,31.10
2018-07-19T16:17:32.336Z,31.10
2018-07-19T16:19:35.501Z,30.90
2018-07-19T16:21:38.657Z,30.80
2018-07-19T16:23:41.771Z,30.50
2018-07-19T16:25:44.988Z,30.50
2018-07-19T16:27:48.120Z,30.50
2018-07-19T16:29:51.259Z,30.60
2018-07-19T16:31:54.405Z,30.70
2018-07-19T16:33:57.535Z,30.80
2018-07-19T16:38:03.680Z,31.30
2018-07-19T16:40:07.016Z,31.30
2018-07-19T16:42:10.159Z,31.40
2018-07-19T16:44:13.288Z,31.40
2018-07-19T16:46:16.421Z,31.30
2018-07-19T16:48:19.656Z,31.40
2018-07-19T16:50:22.791Z,31.50
2018-07-19T16:52:25.931Z,31.50
2018-07-19T16:54:29.064Z,31.50
2018-07-19T16:56:32.199Z,31.50
2018-07-19T16:58:35.340Z,31.50
2018-07-19T17:00:38.491Z,31.50
2018-07-19T17:02:41.650Z,31.60
2018-07-19T17:04:44.771Z,31.60
2018-07-19T17:06:47.915Z,31.60
2018-07-19T17:08:51.045Z,31.60
2018-07-19T17:10:54.712Z,31.60
2018-07-19T17:12:58.076Z,31.60
2018-07-19T17:15:01.220Z,31.50
2018-07-19T17:17:04.508Z,31.50
2018-07-19T17:19:07.640Z,31.40
2018-07-19T17:21:10.807Z,31.30
2018-07-19T17:23:13.948Z,31.30
2018-07-19T17:27:20.028Z,31.00
2018-07-19T17:29:23.165Z,30.90
2018-07-19T17:31:26.308Z,30.80
2018-07-19T17:33:29.447Z,30.80
2018-07-19T17:35:32.580Z,30.70
2018-07-19T17:37:35.711Z,30.70
2018-07-19T17:39:38.853Z,30.60
2018-07-19T17:41:42.484Z,30.50
2018-07-19T17:43:45.651Z,30.40
2018-07-19T17:45:49.078Z,30.30
2018-07-19T17:47:52.201Z,30.30
2018-07-19T17:49:55.343Z,30.20
2018-07-19T17:51:58.472Z,30.10
2018-07-19T17:54:01.616Z,30.00
2018-07-19T17:56:04.740Z,30.00
2018-07-19T17:58:07.892Z,29.90
2018-07-19T18:00:11.055Z,30.00
2018-07-19T18:02:14.263Z,29.90
2018-07-19T18:04:17.408Z,29.90
2018-07-19T18:06:20.577Z,29.90
2018-07-19T18:08:23.695Z,29.80
2018-07-19T18:10:26.860Z,29.80
2018-07-19T18:12:30.022Z,29.80
2018-07-19T18:14:33.164Z,29.80
2018-07-19T18:16:36.327Z,29.80
2018-07-19T18:18:39.456Z,30.00
2018-07-19T18:20:42.579Z,30.10
2018-07-19T18:22:45.720Z,30.20
2018-07-19T18:24:48.879Z,30.40
2018-07-19T18:26:52.072Z,30.70
2018-07-19T18:28:55.208Z,30.70
2018-07-19T18:33:01.259Z,30.50
2018-07-19T18:35:04.467Z,30.40
2018-07-19T18:37:07.631Z,30.30
2018-07-19T18:43:18.113Z,30.20
2018-07-19T18:45:21.252Z,30.00
2018-07-19T18:47:24.406Z,29.60
2018-07-19T18:49:27.600Z,29.30
2018-07-19T18:51:30.779Z,29.10
2018-07-19T18:53:33.920Z,28.80
2018-07-19T18:55:37.067Z,28.60
2018-07-19T18:57:40.316Z,28.40
2018-07-19T18:59:44.102Z,28.20
2018-07-19T19:01:47.212Z,28.00
2018-07-19T19:03:50.878Z,27.90
2018-07-19T19:05:54.023Z,27.70
2018-07-19T19:07:57.108Z,27.40
2018-07-19T19:10:00.192Z,27.40
2018-07-19T19:12:03.300Z,27.30
2018-07-19T19:14:06.376Z,27.10
2018-07-19T19:16:09.468Z,27.00
2018-07-19T19:18:12.555Z,26.90
2018-07-19T19:20:15.655Z,26.80
2018-07-19T19:22:18.748Z,26.70
2018-07-19T19:24:21.888Z,26.60
2018-07-19T19:26:25.004Z,26.50
2018-07-19T19:28:28.247Z,26.40
2018-07-19T19:30:31.288Z,26.30
2018-07-19T19:32:34.415Z,26.20
2018-07-19T19:34:37.476Z,26.00
2018-07-19T19:36:40.881Z,25.90
2018-07-19T19:38:43.963Z,25.80
2018-07-19T19:40:47.056Z,25.70
2018-07-19T19:42:50.181Z,25.60
2018-07-19T19:44:53.324Z,25.50
2018-07-19T19:46:56.356Z,25.40
2018-07-19T19:48:59.431Z,25.30
2018-07-19T20:03:20.704Z,24.70
2018-07-19T20:05:23.803Z,24.70
2018-07-19T20:07:26.918Z,24.60
2018-07-19T20:09:30.013Z,24.50
2018-07-19T20:11:33.984Z,24.40
2018-07-19T20:13:37.019Z,24.40
2018-07-19T20:15:40.108Z,24.30
2018-07-19T20:36:10.553Z,23.60
2018-07-19T20:58:42.704Z,23.00
2018-07-19T21:00:45.860Z,22.90
2018-07-19T21:02:49.583Z,22.80
2018-07-19T21:04:52.724Z,22.70
2018-07-19T21:06:55.848Z,22.70
2018-07-19T21:08:58.979Z,22.60
2018-07-19T21:11:02.108Z,22.60
2018-07-19T21:13:05.481Z,22.50
2018-07-19T21:15:08.620Z,22.50
2018-07-19T21:17:11.811Z,22.40
2018-07-19T21:19:14.934Z,22.30
2018-07-19T21:21:18.119Z,22.30
2018-07-19T21:23:21.254Z,22.20
2018-07-19T21:25:24.380Z,22.20
2018-07-19T21:29:30.511Z,22.00
2018-07-19T21:31:33.659Z,22.00
2018-07-19T21:33:36.881Z,21.90
2018-07-19T21:35:40.068Z,21.80
2018-07-19T21:37:43.205Z,21.80
2018-07-19T21:39:46.321Z,21.80
2018-07-19T21:41:49.467Z,21.70
2018-07-19T21:43:52.596Z,21.70
2018-07-19T21:45:55.744Z,21.60
2018-07-19T21:47:59.755Z,21.60
2018-07-19T21:50:02.886Z,21.60
2018-07-19T21:52:06.052Z,21.60
2018-07-19T21:54:09.175Z,21.60
2018-07-19T21:56:12.322Z,21.50
2018-07-19T21:58:15.447Z,21.50
2018-07-19T22:00:18.583Z,21.50
2018-07-19T22:02:21.728Z,21.50
2018-07-19T22:04:24.862Z,21.50
2018-07-19T22:06:28.096Z,21.50
2018-07-19T22:08:31.468Z,21.50
2018-07-19T22:10:34.607Z,21.40
2018-07-19T22:12:37.774Z,21.40
2018-07-19T22:14:40.896Z,21.30
2018-07-19T22:16:44.132Z,21.30
2018-07-19T22:18:47.252Z,21.30
2018-07-19T22:20:50.380Z,21.20
2018-07-19T22:22:53.522Z,21.10
2018-07-19T22:24:56.663Z,21.10
2018-07-19T22:26:59.803Z,21.10
2018-07-19T22:29:02.943Z,21.00
2018-07-19T22:31:06.275Z,20.90
2018-07-19T22:33:09.403Z,20.90
2018-07-19T22:35:12.540Z,20.80
2018-07-19T22:37:15.672Z,20.70
2018-07-19T22:41:21.800Z,20.70
2018-07-19T22:45:27.905Z,20.60
2018-07-19T22:47:31.026Z,20.50
2018-07-19T22:49:34.152Z,20.50
2018-07-19T22:51:37.292Z,20.30
2018-07-19T22:53:40.991Z,20.30
2018-07-19T22:55:44.140Z,20.20
2018-07-19T22:57:47.294Z,20.20
2018-07-19T22:59:50.428Z,20.20
2018-07-19T23:01:53.583Z,20.10
2018-07-19T23:03:56.704Z,20.20
2018-07-19T23:05:59.872Z,20.10
2018-07-19T23:08:03.034Z,20.10
2018-07-19T23:10:06.164Z,20.00
2018-07-19T23:12:09.298Z,20.00
2018-07-19T23:14:12.455Z,19.90
2018-07-19T23:16:15.935Z,19.90
2018-07-19T23:18:19.084Z,19.90
2018-07-19T23:20:22.288Z,19.80
2018-07-19T23:22:25.584Z,19.80
2018-07-19T23:24:28.756Z,19.70
2018-07-19T23:26:31.908Z,19.70
2018-07-19T23:28:35.053Z,19.70
2018-07-19T23:30:38.485Z,19.60
2018-07-19T23:32:41.620Z,19.60
2018-07-19T23:34:45.017Z,19.60
2018-07-19T23:36:53.419Z,19.60
2018-07-19T23:38:59.995Z,19.60
2018-07-19T23:41:05.943Z,19.60
2018-07-19T23:43:13.528Z,19.50
2018-07-19T23:46:23.746Z,19.50
